Time;durP1;ratioP1;P1;durP2;ratioP2;P2;SDS_P1;SDS_P2;PMS_P1;PMS_P2;Temp;Humidity;BMP_temperature;BMP_pressure;BME280_temperature;BME280_humidity;BME280_pressure;Samples;Min_cycle;Max_cycle;Signal;HPM_P1;HPM_P2
2022/08/05 00:02:13;;;;;;;1.50;1.40;;;27.50;78.90;;;;;;4994887;28;20527;-87
2022/08/05 00:04:40;;;;;;;2.63;1.40;;;27.50;78.90;;;;;;4994547;28;20484;-87
2022/08/05 00:07:07;;;;;;;1.40;1.20;;;27.50;78.90;;;;;;4994822;28;20544;-88
2022/08/05 00:09:33;;;;;;;1.10;1.00;;;27.50;78.90;;;;;;4994503;28;20444;-87
2022/08/05 00:12:02;;;;;;;1.27;1.17;;;27.60;79.00;;;;;;4994543;28;20539;-87
2022/08/05 00:14:28;;;;;;;1.53;1.30;;;27.50;78.90;;;;;;4994525;28;20507;-88
2022/08/05 00:16:55;;;;;;;1.90;1.30;;;27.50;78.90;;;;;;4994620;28;20445;-87
2022/08/05 00:19:22;;;;;;;1.77;1.23;;;27.50;78.90;;;;;;4994377;28;20550;-87
2022/08/05 00:21:49;;;;;;;1.10;1.00;;;27.60;79.00;;;;;;4994246;28;20455;-87
2022/08/05 00:24:16;;;;;;;1.97;1.13;;;27.50;79.80;;;;;;4994208;28;20534;-87
2022/08/05 00:26:43;;;;;;;1.40;1.30;;;27.50;78.90;;;;;;4994384;28;20527;-87
2022/08/05 00:29:11;;;;;;;1.20;1.00;;;27.50;79.80;;;;;;4994249;28;20559;-86
2022/08/05 00:31:38;;;;;;;1.37;1.27;;;27.50;78.90;;;;;;4994327;28;20480;-87
2022/08/05 00:34:05;;;;;;;1.30;1.20;;;27.50;78.90;;;;;;4994550;28;20547;-88
2022/08/05 00:36:32;;;;;;;1.73;1.20;;;27.50;78.90;;;;;;4994513;28;20543;-87
2022/08/05 00:38:59;;;;;;;1.20;1.10;;;27.50;78.90;;;;;;4994335;28;20936;-88
2022/08/05 00:41:30;;;;;;;1.33;1.23;;;27.50;78.90;;;;;;4994109;28;20876;-88
2022/08/05 00:43:57;;;;;;;1.40;1.30;;;27.50;78.90;;;;;;4993910;28;20568;-88
2022/08/05 00:46:25;;;;;;;1.20;1.10;;;27.50;79.00;;;;;;4994003;28;20462;-87
2022/08/05 00:48:53;;;;;;;1.57;1.30;;;27.50;79.00;;;;;;4993711;28;20499;-87
2022/08/05 00:51:20;;;;;;;1.30;1.17;;;27.50;79.00;;;;;;4994051;28;20539;-85
2022/08/05 00:53:47;;;;;;;1.40;1.30;;;27.50;79.80;;;;;;4994210;28;20882;-88
2022/08/05 00:56:15;;;;;;;1.27;1.17;;;27.50;79.00;;;;;;4994130;28;20531;-87
2022/08/05 00:58:44;;;;;;;1.10;1.00;;;27.50;79.00;;;;;;4993991;28;20799;-87
2022/08/05 01:01:12;;;;;;;1.33;1.23;;;27.50;79.00;;;;;;4994183;28;20444;-86
2022/08/05 01:03:40;;;;;;;1.20;1.10;;;27.50;79.00;;;;;;4994804;28;20450;-87
2022/08/05 01:06:08;;;;;;;1.20;1.10;;;27.50;79.00;;;;;;4994082;28;20571;-87
2022/08/05 01:08:35;;;;;;;1.20;1.10;;;27.50;78.90;;;;;;4993983;28;20532;-88
2022/08/05 01:11:06;;;;;;;1.50;1.40;;;27.50;79.00;;;;;;4993798;28;20946;-87
2022/08/05 01:13:41;;;;;;;1.70;1.27;;;27.50;79.00;;;;;;4994589;28;20445;-87
2022/08/05 01:16:13;;;;;;;1.10;1.00;;;27.50;79.00;;;;;;4993827;28;20534;-88
2022/08/05 01:18:46;;;;;;;1.33;1.23;;;27.50;79.00;;;;;;4994446;28;20547;-88
2022/08/05 01:21:26;;;;;;;1.23;1.10;;;27.50;78.90;;;;;;4997606;28;21007;-88
2022/08/05 01:24:05;;;;;;;1.73;1.30;;;27.50;79.00;;;;;;4997882;28;20539;-87
2022/08/05 01:26:44;;;;;;;1.30;1.20;;;27.50;79.00;;;;;;4997889;28;20520;-87
2022/08/05 01:29:19;;;;;;;1.40;1.10;;;27.50;79.00;;;;;;4997591;28;20546;-86
2022/08/05 01:31:50;;;;;;;1.40;1.30;;;27.50;78.90;;;;;;4997611;28;20903;-87
2022/08/05 01:34:21;;;;;;;1.67;1.50;;;27.50;78.90;;;;;;4997899;28;20804;-87
2022/08/05 01:36:58;;;;;;;1.20;1.10;;;27.50;78.90;;;;;;4997416;28;20444;-87
2022/08/05 01:39:26;;;;;;;2.33;1.27;;;27.50;78.90;;;;;;4997595;28;21007;-86
2022/08/05 01:41:55;;;;;;;1.30;1.20;;;27.50;78.90;;;;;;4997426;28;20527;-87
2022/08/05 01:44:24;;;;;;;1.27;1.17;;;27.50;78.90;;;;;;4997099;28;20997;-87
2022/08/05 01:46:53;;;;;;;1.97;1.30;;;27.50;78.90;;;;;;4997311;28;20445;-86
2022/08/05 01:49:23;;;;;;;1.37;1.07;;;27.50;78.90;;;;;;4997213;28;20551;-87
2022/08/05 01:51:51;;;;;;;1.70;1.30;;;27.50;79.70;;;;;;4997356;28;20878;-86
2022/08/05 01:54:20;;;;;;;1.50;1.07;;;27.50;78.80;;;;;;4997131;28;20535;-87
2022/08/05 01:56:49;;;;;;;1.10;1.00;;;27.50;78.80;;;;;;4997452;28;20539;-88
2022/08/05 01:59:19;;;;;;;1.40;1.10;;;27.50;78.80;;;;;;4997213;28;20836;-84
2022/08/05 02:01:51;;;;;;;1.60;1.50;;;27.50;78.80;;;;;;4997198;28;20456;-86
2022/08/05 02:04:20;;;;;;;1.90;1.20;;;27.50;78.80;;;;;;4997026;28;20448;-87
2022/08/05 02:06:47;;;;;;;1.40;1.07;;;27.50;78.80;;;;;;4997069;28;20575;-88
2022/08/05 02:09:14;;;;;;;1.23;1.13;;;27.50;78.70;;;;;;4996743;28;20440;-86
2022/08/05 02:11:45;;;;;;;1.23;1.13;;;27.50;78.70;;;;;;4996803;28;20448;-87
2022/08/05 02:14:14;;;;;;;1.30;1.10;;;27.50;78.70;;;;;;4996972;28;20527;-87
2022/08/05 02:16:46;;;;;;;1.20;1.10;;;27.50;79.60;;;;;;4996888;28;20536;-87
2022/08/05 02:19:30;;;;;;;1.40;1.30;;;27.50;78.60;;;;;;4996634;28;20492;-87
2022/08/05 02:22:01;;;;;;;1.20;1.10;;;27.50;78.50;;;;;;4996846;28;20447;-87
2022/08/05 02:24:36;;;;;;;1.20;1.10;;;27.50;78.60;;;;;;4996701;28;20445;-88
2022/08/05 02:27:06;;;;;;;1.20;1.10;;;27.50;78.50;;;;;;4996893;28;20510;-87
2022/08/05 02:29:36;;;;;;;1.17;1.00;;;27.50;78.50;;;;;;5000186;28;20531;-88
2022/08/05 02:32:04;;;;;;;1.33;1.23;;;27.50;78.40;;;;;;5000857;28;20447;-88
2022/08/05 02:34:34;;;;;;;1.20;1.10;;;27.50;78.40;;;;;;5006751;28;20449;-83
2022/08/05 02:37:04;;;;;;;1.50;1.40;;;27.50;78.30;;;;;;4997062;28;20440;-88
2022/08/05 02:39:35;;;;;;;1.20;1.00;;;27.50;78.40;;;;;;4996627;28;20860;-88
2022/08/05 02:42:03;;;;;;;1.20;1.10;;;27.50;78.30;;;;;;4996425;28;20469;-89
2022/08/05 02:44:32;;;;;;;1.30;1.00;;;27.50;78.30;;;;;;4996158;28;20559;-88
2022/08/05 02:47:00;;;;;;;1.07;0.97;;;27.50;78.30;;;;;;4996280;28;20507;-88
2022/08/05 02:49:29;;;;;;;1.40;1.10;;;27.50;78.30;;;;;;4996043;28;20503;-88
2022/08/05 02:51:58;;;;;;;1.20;1.10;;;27.50;79.20;;;;;;4996049;28;20480;-89
2022/08/05 02:54:26;;;;;;;1.27;1.17;;;27.50;78.30;;;;;;4996444;28;20535;-88
2022/08/05 02:56:53;;;;;;;1.53;1.03;;;27.50;78.30;;;;;;4995953;28;20444;-86
2022/08/05 02:59:22;;;;;;;2.03;1.20;;;27.50;78.40;;;;;;4996015;28;20454;-88
2022/08/05 03:01:50;;;;;;;1.20;1.10;;;27.50;78.30;;;;;;4996095;28;20475;-89
2022/08/05 03:04:18;;;;;;;1.30;1.20;;;27.50;78.40;;;;;;4996467;28;20466;-89
2022/08/05 03:06:46;;;;;;;1.30;1.20;;;27.50;79.30;;;;;;4995857;28;20484;-89
2022/08/05 03:09:14;;;;;;;1.23;1.13;;;27.50;78.40;;;;;;4995685;28;20543;-89
2022/08/05 03:11:43;;;;;;;1.63;1.33;;;27.50;78.50;;;;;;4995967;28;20460;-89
2022/08/05 03:14:10;;;;;;;1.23;1.13;;;27.50;78.50;;;;;;4995931;28;20448;-89
2022/08/05 03:16:37;;;;;;;1.37;1.27;;;27.50;78.50;;;;;;4996014;28;20466;-89
2022/08/05 03:19:04;;;;;;;1.47;1.37;;;27.50;78.60;;;;;;4995504;28;20523;-88
2022/08/05 03:21:31;;;;;;;1.20;1.10;;;27.50;78.60;;;;;;4995593;28;20440;-89
2022/08/05 03:23:59;;;;;;;1.40;1.30;;;27.50;78.60;;;;;;4995875;28;20954;-89
2022/08/05 03:26:27;;;;;;;1.10;1.00;;;27.50;78.70;;;;;;4995686;28;20491;-89
2022/08/05 03:28:54;;;;;;;1.30;1.20;;;27.50;78.60;;;;;;4995671;28;20814;-89
2022/08/05 03:31:21;;;;;;;1.27;1.17;;;27.50;78.70;;;;;;4995655;28;20492;-84
2022/08/05 03:33:48;;;;;;;1.20;1.10;;;27.50;78.60;;;;;;4995605;28;20543;-87
2022/08/05 03:36:15;;;;;;;1.10;1.00;;;27.50;78.70;;;;;;4995248;28;20440;-87
2022/08/05 03:38:42;;;;;;;1.50;1.40;;;27.50;78.70;;;;;;4995057;28;20816;-88
2022/08/05 03:41:10;;;;;;;1.67;1.20;;;27.50;78.70;;;;;;4995340;28;20527;-87
2022/08/05 03:43:38;;;;;;;1.00;0.90;;;27.50;78.70;;;;;;4994824;28;20559;-88
2022/08/05 03:46:05;;;;;;;1.20;1.10;;;27.50;78.70;;;;;;4995127;28;20492;-88
2022/08/05 03:48:33;;;;;;;1.50;1.40;;;27.50;78.70;;;;;;4995079;28;20551;-87
2022/08/05 03:51:07;;;;;;;1.40;1.20;;;27.50;78.60;;;;;;4995473;28;20539;-88
2022/08/05 03:53:38;;;;;;;1.67;1.00;;;27.50;78.50;;;;;;4995314;28;20439;-86
2022/08/05 03:56:10;;;;;;;1.30;1.10;;;27.50;78.40;;;;;;4995215;28;20524;-89
2022/08/05 03:58:41;;;;;;;1.37;1.27;;;27.50;78.40;;;;;;4994954;28;20523;-87
2022/08/05 04:01:09;;;;;;;1.93;1.83;;;27.40;78.40;;;;;;4994983;28;20527;-88
2022/08/05 04:03:38;;;;;;;1.70;1.40;;;27.40;78.40;;;;;;4994709;28;20975;-88
2022/08/05 04:06:07;;;;;;;2.17;1.53;;;27.40;78.40;;;;;;4994971;28;20915;-87
2022/08/05 04:08:36;;;;;;;1.80;1.20;;;27.50;78.40;;;;;;4994548;28;20536;-89
2022/08/05 04:11:06;;;;;;;1.33;1.23;;;27.40;78.40;;;;;;4994620;28;20531;-89
2022/08/05 04:13:33;;;;;;;1.37;1.27;;;27.40;78.40;;;;;;4995061;28;20940;-89
2022/08/05 04:16:01;;;;;;;1.67;1.20;;;27.40;78.40;;;;;;4994435;28;20495;-87
2022/08/05 04:18:28;;;;;;;1.27;1.17;;;27.40;78.40;;;;;;4994423;28;20495;-89
2022/08/05 04:20:57;;;;;;;1.30;1.20;;;27.40;78.50;;;;;;4994496;28;20519;-88
2022/08/05 04:23:26;;;;;;;1.40;1.30;;;27.40;78.50;;;;;;5004592;28;20467;-85
2022/08/05 04:25:53;;;;;;;1.40;1.20;;;27.40;78.50;;;;;;4990600;28;20524;-87
2022/08/05 04:28:20;;;;;;;1.30;1.20;;;27.50;78.50;;;;;;4976651;28;20449;-87
2022/08/05 04:30:48;;;;;;;1.30;1.20;;;27.40;78.50;;;;;;4988817;28;20528;-89
2022/08/05 04:33:16;;;;;;;1.40;1.30;;;27.40;78.60;;;;;;4994285;28;20471;-87
2022/08/05 04:35:44;;;;;;;2.03;1.30;;;27.40;78.60;;;;;;4983106;28;20880;-89
2022/08/05 04:38:11;;;;;;;2.13;1.60;;;27.40;78.60;;;;;;4979855;28;20441;-85
2022/08/05 04:40:40;;;;;;;1.43;1.23;;;27.40;78.70;;;;;;4974679;28;20449;-87
2022/08/05 04:43:07;;;;;;;2.10;1.43;;;27.40;78.60;;;;;;4980888;28;20504;-87
2022/08/05 04:45:35;;;;;;;1.60;1.50;;;27.40;78.60;;;;;;4981785;28;20563;-85
2022/08/05 04:48:07;;;;;;;1.40;1.30;;;27.40;78.70;;;;;;4994036;28;20483;-88
2022/08/05 04:50:43;;;;;;;1.50;1.40;;;27.40;78.60;;;;;;4974704;28;20448;-88
2022/08/05 04:53:11;;;;;;;1.50;1.13;;;27.40;78.50;;;;;;4983574;28;20503;-86
2022/08/05 04:55:49;;;;;;;1.60;1.50;;;27.40;78.60;;;;;;4979239;28;20449;-84
2022/08/05 04:58:17;;;;;;;1.50;1.40;;;27.40;78.50;;;;;;4977314;28;20845;-85
2022/08/05 05:00:44;;;;;;;1.70;1.60;;;27.40;78.60;;;;;;4985130;28;20476;-88
2022/08/05 05:03:12;;;;;;;1.47;1.37;;;27.40;78.70;;;;;;4982286;28;20469;-88
2022/08/05 05:05:40;;;;;;;1.50;1.30;;;27.30;78.60;;;;;;4984956;28;20559;-88
2022/08/05 05:08:09;;;;;;;1.50;1.33;;;27.40;78.70;;;;;;4994290;28;20479;-88
2022/08/05 05:10:40;;;;;;;1.63;1.20;;;27.40;78.60;;;;;;4994069;28;20468;-87
2022/08/05 05:13:07;;;;;;;1.73;1.63;;;27.40;78.70;;;;;;4994170;28;20456;-89
2022/08/05 05:15:34;;;;;;;1.67;1.43;;;27.40;78.70;;;;;;4994115;28;20480;-88
2022/08/05 05:18:01;;;;;;;1.63;1.53;;;27.40;78.70;;;;;;4994430;28;20552;-87
2022/08/05 05:20:28;;;;;;;1.53;1.43;;;27.40;78.70;;;;;;4994253;28;20475;-88
2022/08/05 05:22:56;;;;;;;1.63;1.33;;;27.40;78.60;;;;;;4994108;28;20535;-88
2022/08/05 05:25:23;;;;;;;1.97;1.83;;;27.40;78.70;;;;;;4993703;28;20452;-88
2022/08/05 05:27:51;;;;;;;1.70;1.60;;;27.40;78.80;;;;;;4993598;28;20486;-88
2022/08/05 05:30:19;;;;;;;1.67;1.57;;;27.40;78.60;;;;;;4993889;28;20460;-88
2022/08/05 05:32:46;;;;;;;1.83;1.73;;;27.40;78.60;;;;;;4993887;28;20540;-88
2022/08/05 05:35:13;;;;;;;2.40;2.13;;;27.40;78.60;;;;;;4993880;28;20893;-87
2022/08/05 05:37:47;;;;;;;1.90;1.80;;;27.40;78.70;;;;;;4993812;28;20444;-88
2022/08/05 05:40:17;;;;;;;2.00;1.90;;;27.40;78.60;;;;;;4993872;28;20452;-88
2022/08/05 05:42:44;;;;;;;2.07;1.70;;;27.40;78.60;;;;;;4993874;28;20575;-88
2022/08/05 05:45:11;;;;;;;2.20;2.00;;;27.40;78.50;;;;;;4993829;28;20539;-88
2022/08/05 05:47:39;;;;;;;2.07;1.97;;;27.40;78.50;;;;;;4994342;28;20484;-88
2022/08/05 05:50:07;;;;;;;1.77;1.67;;;27.40;78.60;;;;;;4982498;28;20450;-88
2022/08/05 05:52:34;;;;;;;2.00;1.83;;;27.40;78.60;;;;;;4975323;28;20484;-86
2022/08/05 05:55:02;;;;;;;5.47;4.73;;;27.40;79.50;;;;;;4992533;28;20523;-88
2022/08/05 05:57:30;;;;;;;6.53;6.03;;;27.30;80.30;;;;;;4992284;28;20491;-86
2022/08/05 05:59:57;;;;;;;7.20;6.40;;;27.30;82.30;;;;;;4993510;28;20527;-87
2022/08/05 06:02:24;;;;;;;7.57;6.80;;;27.20;81.90;;;;;;4993478;28;20535;-88
2022/08/05 06:04:50;;;;;;;11.73;7.57;;;27.10;82.30;;;;;;4993532;28;20535;-88
2022/08/05 06:07:17;;;;;;;8.93;7.07;;;27.10;82.70;;;;;;4996700;28;20909;-89
2022/08/05 06:09:44;;;;;;;11.80;7.87;;;27.00;83.10;;;;;;4997534;28;20539;-86
2022/08/05 06:12:11;;;;;;;10.40;7.53;;;26.90;83.60;;;;;;4997229;28;20535;-89
2022/08/05 06:14:41;;;;;;;7.97;7.27;;;26.90;84.10;;;;;;4997016;28;20913;-89
2022/08/05 06:17:08;;;;;;;9.20;8.30;;;26.80;84.20;;;;;;4997185;28;20824;-88
2022/08/05 06:19:35;;;;;;;7.67;6.97;;;26.70;84.60;;;;;;4996609;28;20488;-88
2022/08/05 06:22:02;;;;;;;9.80;8.67;;;26.70;84.70;;;;;;4997019;28;20506;-89
2022/08/05 06:24:28;;;;;;;8.77;7.97;;;26.60;85.00;;;;;;4996822;28;20448;-88
2022/08/05 06:26:55;;;;;;;8.77;7.80;;;26.50;85.10;;;;;;4996881;28;20494;-89
2022/08/05 06:29:23;;;;;;;9.83;7.80;;;26.40;85.20;;;;;;4996859;28;20448;-86
2022/08/05 06:31:51;;;;;;;9.23;8.23;;;26.40;85.30;;;;;;4996853;28;20836;-88
2022/08/05 06:34:18;;;;;;;13.10;7.90;;;26.30;85.50;;;;;;4996950;28;20537;-88
2022/08/05 06:36:45;;;;;;;8.27;7.47;;;26.30;85.80;;;;;;4995922;28;20488;-89
2022/08/05 06:39:12;;;;;;;7.17;6.63;;;26.20;85.60;;;;;;4996085;28;20459;-88
2022/08/05 06:41:39;;;;;;;7.37;6.67;;;26.20;85.50;;;;;;4996413;28;20802;-87
2022/08/05 06:44:06;;;;;;;8.33;7.30;;;26.20;86.50;;;;;;4995735;28;20535;-84
2022/08/05 06:46:33;;;;;;;9.10;7.10;;;26.20;85.90;;;;;;4996535;28;20975;-85
2022/08/05 06:49:02;;;;;;;10.33;7.50;;;26.20;85.90;;;;;;4996514;28;20522;-87
2022/08/05 06:51:29;;;;;;;8.63;7.40;;;26.20;85.90;;;;;;4996117;28;20476;-85
2022/08/05 06:53:57;;;;;;;7.80;7.00;;;26.20;85.70;;;;;;4996408;28;20862;-86
2022/08/05 06:56:23;;;;;;;10.90;6.30;;;26.20;85.80;;;;;;4995926;28;20480;-87
2022/08/05 06:58:50;;;;;;;6.50;6.00;;;26.20;85.50;;;;;;4998652;28;20444;-86
2022/08/05 07:01:17;;;;;;;7.13;6.00;;;26.10;85.50;;;;;;5003831;28;20487;-84
2022/08/05 07:03:44;;;;;;;8.50;6.23;;;26.10;86.50;;;;;;4999123;28;20445;-82
2022/08/05 07:06:12;;;;;;;8.20;6.43;;;26.00;85.50;;;;;;4999322;28;20583;-86
2022/08/05 07:08:39;;;;;;;7.17;6.47;;;26.00;85.60;;;;;;4996063;28;20449;-86
2022/08/05 07:11:06;;;;;;;9.03;6.87;;;26.00;85.50;;;;;;4977892;28;20529;-84
2022/08/05 07:19:04;;;;;;;7.53;6.10;;;26.00;85.50;;;;;;4995916;28;20503;-86
2022/08/05 07:21:32;;;;;;;9.47;6.73;;;26.00;85.40;;;;;;4995259;28;20483;-85
2022/08/05 07:23:59;;;;;;;5.67;5.17;;;25.90;85.30;;;;;;4996095;28;20531;-87
2022/08/05 07:26:25;;;;;;;8.80;5.60;;;25.90;85.60;;;;;;4995577;28;20582;-86
2022/08/05 07:28:52;;;;;;;8.53;5.53;;;25.90;85.40;;;;;;4995613;28;20854;-87
2022/08/05 07:31:19;;;;;;;5.93;5.40;;;25.90;85.20;;;;;;4995493;28;20477;-88
2022/08/05 07:33:46;;;;;;;6.43;5.83;;;25.80;85.10;;;;;;4995481;28;20803;-88
2022/08/05 07:36:13;;;;;;;5.63;5.23;;;25.80;85.10;;;;;;4995578;28;20551;-87
2022/08/05 07:38:42;;;;;;;5.73;5.13;;;25.80;85.30;;;;;;5003036;28;20503;-87
2022/08/05 07:41:11;;;;;;;5.77;4.10;;;25.90;85.10;;;;;;4999928;28;20443;-86
2022/08/05 07:43:37;;;;;;;4.60;4.17;;;25.80;84.70;;;;;;4998785;28;20490;-86
2022/08/05 07:46:04;;;;;;;6.20;4.57;;;25.80;84.70;;;;;;4996061;28;20808;-85
2022/08/05 07:48:31;;;;;;;6.43;4.20;;;25.80;84.60;;;;;;4997800;28;20523;-90
2022/08/05 07:50:58;;;;;;;4.87;4.47;;;25.80;84.20;;;;;;5000326;28;20944;-86
2022/08/05 07:53:25;;;;;;;6.47;4.73;;;25.80;84.70;;;;;;5002252;28;20527;-87
2022/08/05 07:55:53;;;;;;;5.73;4.47;;;25.80;84.60;;;;;;5000635;28;20889;-86
2022/08/05 07:58:20;;;;;;;5.30;4.43;;;25.80;84.20;;;;;;4999842;28;20540;-87
2022/08/05 08:00:48;;;;;;;4.07;3.77;;;25.80;84.30;;;;;;4996156;28;20853;-86
2022/08/05 08:03:16;;;;;;;4.10;3.70;;;25.80;84.40;;;;;;4977762;28;20464;-84
2022/08/05 08:05:43;;;;;;;3.80;3.50;;;25.70;84.50;;;;;;4975259;28;20854;-84
2022/08/05 08:08:10;;;;;;;7.73;4.30;;;25.70;84.40;;;;;;4975032;28;20488;-84
2022/08/05 08:10:37;;;;;;;9.50;4.53;;;25.70;84.20;;;;;;4975179;28;20442;-84
2022/08/05 08:13:06;;;;;;;5.30;4.67;;;25.70;84.20;;;;;;4983434;28;20793;-83
2022/08/05 08:15:33;;;;;;;4.33;3.80;;;25.70;84.20;;;;;;4994486;28;20539;-84
2022/08/05 08:18:00;;;;;;;9.53;4.43;;;25.60;84.10;;;;;;4994471;28;20556;-84
2022/08/05 08:20:27;;;;;;;5.40;3.53;;;25.60;84.10;;;;;;4994499;28;20468;-84
2022/08/05 08:22:55;;;;;;;6.43;3.70;;;25.60;83.90;;;;;;4994449;28;20813;-84
2022/08/05 08:25:22;;;;;;;5.00;3.07;;;25.60;84.10;;;;;;4994434;28;20444;-84
2022/08/05 08:27:49;;;;;;;4.63;3.33;;;25.60;84.00;;;;;;4994044;28;20488;-83
2022/08/05 08:30:18;;;;;;;3.33;3.03;;;25.60;84.10;;;;;;4993730;28;20527;-83
2022/08/05 08:32:45;;;;;;;4.60;3.80;;;25.50;83.80;;;;;;4994528;28;20483;-83
2022/08/05 08:35:13;;;;;;;3.37;2.97;;;25.50;83.90;;;;;;4994359;28;20464;-84
2022/08/05 08:37:40;;;;;;;3.70;2.77;;;25.50;83.70;;;;;;4994061;28;20985;-83
2022/08/05 08:40:08;;;;;;;6.97;2.87;;;25.50;83.50;;;;;;4993579;28;20515;-86
2022/08/05 08:42:36;;;;;;;3.83;2.87;;;25.50;83.40;;;;;;4994033;28;20472;-83
2022/08/05 08:45:04;;;;;;;3.37;3.07;;;25.50;83.60;;;;;;4994171;28;20475;-87
2022/08/05 08:47:33;;;;;;;6.87;3.17;;;25.50;83.30;;;;;;4994514;28;20523;-85
2022/08/05 08:50:03;;;;;;;5.10;3.10;;;25.50;83.50;;;;;;4994116;28;20535;-84
2022/08/05 08:52:32;;;;;;;4.37;3.13;;;25.50;83.10;;;;;;4994260;28;20527;-87
2022/08/05 08:54:59;;;;;;;6.33;3.13;;;25.40;83.50;;;;;;4993943;28;20447;-84
2022/08/05 08:57:26;;;;;;;4.50;3.00;;;25.50;83.20;;;;;;4993971;28;20507;-83
2022/08/05 08:59:53;;;;;;;4.50;3.70;;;25.50;83.60;;;;;;4993910;28;20445;-84
2022/08/05 09:02:21;;;;;;;6.03;3.10;;;25.50;83.70;;;;;;4993504;28;20445;-87
2022/08/05 09:04:49;;;;;;;3.03;2.70;;;25.50;83.30;;;;;;4987430;28;22874;-84
2022/08/05 09:07:16;;;;;;;4.20;2.67;;;25.50;83.50;;;;;;4991062;28;20492;-82
2022/08/05 09:09:43;;;;;;;6.17;3.50;;;25.50;83.60;;;;;;4991186;28;20456;-81
2022/08/05 09:12:11;;;;;;;3.83;3.03;;;25.50;83.70;;;;;;4991326;28;20535;-82
2022/08/05 09:14:38;;;;;;;5.17;3.53;;;25.50;84.10;;;;;;4991367;28;20802;-82
2022/08/05 09:17:08;;;;;;;4.10;3.43;;;25.50;84.20;;;;;;4991477;28;20476;-82
2022/08/05 09:19:35;;;;;;;6.03;3.23;;;25.50;84.20;;;;;;4991289;28;20459;-82
2022/08/05 09:22:03;;;;;;;3.60;2.97;;;25.50;83.90;;;;;;4993518;28;20445;-82
2022/08/05 09:24:30;;;;;;;4.57;3.17;;;25.50;84.00;;;;;;4993663;28;20944;-82
2022/08/05 09:26:58;;;;;;;5.60;3.13;;;25.40;84.50;;;;;;4993499;28;20519;-82
2022/08/05 09:29:40;;;;;;;6.27;2.87;;;25.40;83.90;;;;;;4993271;28;20537;-82
2022/08/05 09:32:08;;;;;;;7.57;2.87;;;25.40;83.90;;;;;;4993083;28;20440;-82
2022/08/05 09:34:49;;;;;;;5.60;2.43;;;25.40;84.70;;;;;;4992890;28;20468;-82
2022/08/05 09:37:22;;;;;;;3.90;2.50;;;25.50;84.90;;;;;;4992507;28;20444;-82
2022/08/05 09:39:49;;;;;;;3.03;2.77;;;25.40;84.70;;;;;;4994216;28;20527;-83
2022/08/05 09:42:17;;;;;;;5.83;2.93;;;25.40;84.30;;;;;;4996921;28;20519;-83
2022/08/05 09:44:45;;;;;;;5.77;2.90;;;25.40;84.20;;;;;;4997179;28;20539;-83
2022/08/05 09:47:15;;;;;;;3.87;2.80;;;25.40;83.80;;;;;;4995585;28;20491;-82
2022/08/05 09:49:45;;;;;;;2.97;2.50;;;25.40;83.70;;;;;;4994567;28;20449;-82
2022/08/05 09:52:22;;;;;;;3.03;2.07;;;25.40;83.50;;;;;;4993515;28;20451;-85
2022/08/05 09:54:53;;;;;;;5.10;2.40;;;25.50;83.10;;;;;;5000456;28;20962;-83
2022/08/05 09:57:31;;;;;;;4.90;2.73;;;25.40;83.70;;;;;;5005891;28;20998;-86
2022/08/05 10:00:00;;;;;;;6.90;2.67;;;25.40;83.50;;;;;;5006144;28;20599;-85
2022/08/05 10:02:35;;;;;;;3.87;2.57;;;25.40;83.40;;;;;;4996117;28;20479;-85
2022/08/05 10:05:11;;;;;;;8.70;2.87;;;25.40;83.90;;;;;;4996362;28;20542;-84
2022/08/05 10:08:01;;;;;;;4.20;2.50;;;25.40;83.60;;;;;;4996540;28;20491;-86
2022/08/05 10:10:32;;;;;;;4.43;3.10;;;25.40;83.50;;;;;;4992276;28;20532;-84
2022/08/05 10:13:01;;;;;;;3.20;2.67;;;25.40;84.70;;;;;;5012775;28;20447;-83
2022/08/05 10:15:31;;;;;;;4.03;3.10;;;25.30;83.80;;;;;;5016036;28;20455;-83
2022/08/05 10:18:08;;;;;;;6.57;3.10;;;25.30;83.20;;;;;;5015949;28;21058;-83
2022/08/05 10:20:38;;;;;;;2.33;1.90;;;25.30;83.00;;;;;;5015734;28;20464;-83
2022/08/05 10:23:06;;;;;;;4.30;2.27;;;25.30;83.00;;;;;;5016156;28;20468;-83
2022/08/05 10:25:34;;;;;;;9.73;3.60;;;25.40;83.30;;;;;;5015910;28;20487;-83
2022/08/05 10:28:01;;;;;;;3.70;2.80;;;25.40;83.80;;;;;;5015401;28;20626;-83
2022/08/05 10:30:28;;;;;;;6.07;2.30;;;25.40;83.90;;;;;;5015525;28;20444;-83
2022/08/05 10:32:58;;;;;;;4.83;2.20;;;25.40;83.80;;;;;;5015791;28;20538;-83
2022/08/05 10:35:25;;;;;;;2.63;1.90;;;25.40;83.80;;;;;;5013649;28;20455;-83
2022/08/05 10:37:52;;;;;;;5.20;2.23;;;25.40;83.70;;;;;;5013803;28;20447;-84
2022/08/05 10:40:27;;;;;;;4.63;2.83;;;25.50;83.40;;;;;;5014635;28;20490;-84
2022/08/05 10:42:59;;;;;;;4.33;2.10;;;25.60;83.10;;;;;;5014766;28;20498;-83
2022/08/05 10:45:27;;;;;;;2.90;1.83;;;25.70;83.00;;;;;;5014935;28;21014;-83
2022/08/05 10:47:54;;;;;;;1.80;1.70;;;25.80;82.90;;;;;;5014771;28;20491;-83
2022/08/05 10:50:21;;;;;;;2.60;1.80;;;25.80;82.50;;;;;;5014928;28;20946;-83
2022/08/05 10:52:55;;;;;;;4.30;1.90;;;25.90;82.30;;;;;;5014035;28;20487;-83
2022/08/05 10:55:24;;;;;;;2.30;1.50;;;26.00;81.90;;;;;;5000832;28;20463;-83
2022/08/05 10:58:07;;;;;;;2.03;1.53;;;26.10;81.60;;;;;;4994698;28;20448;-83
2022/08/05 11:00:34;;;;;;;3.23;1.93;;;26.20;81.30;;;;;;4994251;28;20444;-83
2022/08/05 11:03:13;;;;;;;2.00;1.90;;;26.20;81.20;;;;;;4994430;28;20535;-83
2022/08/05 11:05:40;;;;;;;1.97;1.77;;;26.30;80.90;;;;;;4994522;28;20455;-89
2022/08/05 11:08:09;;;;;;;2.83;1.87;;;26.30;80.90;;;;;;4994925;28;20539;-87
2022/08/05 11:10:41;;;;;;;3.30;1.90;;;26.40;80.80;;;;;;4994929;28;20445;-88
2022/08/05 11:13:09;;;;;;;2.03;1.73;;;26.40;81.00;;;;;;4996666;28;20433;-88
2022/08/05 11:15:39;;;;;;;2.20;1.70;;;26.40;81.00;;;;;;5003446;28;20472;-87
2022/08/05 11:18:08;;;;;;;3.83;2.00;;;26.50;81.00;;;;;;4995775;28;20811;-89
2022/08/05 11:20:39;;;;;;;1.97;1.50;;;26.50;80.70;;;;;;4995812;28;20531;-88
2022/08/05 11:23:32;;;;;;;1.93;1.57;;;26.50;80.40;;;;;;4997085;28;20468;-88
2022/08/05 11:26:05;;;;;;;1.97;1.43;;;26.50;80.00;;;;;;4996240;28;20952;-87
2022/08/05 11:28:47;;;;;;;3.83;1.40;;;26.50;80.00;;;;;;4998871;28;20923;-85
2022/08/05 11:31:31;;;;;;;2.47;1.50;;;26.50;80.00;;;;;;4995478;28;20452;-87
2022/08/05 11:34:01;;;;;;;3.80;1.77;;;26.50;79.90;;;;;;4995553;28;20514;-87
2022/08/05 11:36:46;;;;;;;1.60;1.50;;;26.50;80.10;;;;;;4976005;28;20532;-87
2022/08/05 11:39:15;;;;;;;1.73;1.37;;;26.50;80.00;;;;;;4976080;28;20449;-87
2022/08/05 11:41:50;;;;;;;2.03;1.50;;;26.50;80.10;;;;;;4975803;28;20501;-87
2022/08/05 11:44:19;;;;;;;2.00;1.43;;;26.60;80.00;;;;;;4975734;28;20472;-87
2022/08/05 11:46:48;;;;;;;4.70;1.60;;;26.60;79.90;;;;;;4975688;28;21000;-87
2022/08/05 11:49:16;;;;;;;2.63;1.60;;;26.60;79.80;;;;;;4975647;28;20861;-87
2022/08/05 11:51:44;;;;;;;3.20;1.60;;;26.60;79.60;;;;;;4975739;28;20536;-88
2022/08/05 11:54:12;;;;;;;3.60;1.70;;;26.60;79.60;;;;;;4975720;28;20446;-88
2022/08/05 11:56:49;;;;;;;3.00;1.50;;;26.60;79.50;;;;;;4975640;28;20484;-87
2022/08/05 11:59:18;;;;;;;3.27;1.43;;;26.60;79.40;;;;;;4975533;28;20485;-87
2022/08/05 12:01:53;;;;;;;1.73;1.60;;;26.60;79.30;;;;;;4975615;28;20476;-86
2022/08/05 12:04:20;;;;;;;1.53;1.43;;;26.70;79.30;;;;;;4975633;28;20488;-87
2022/08/05 12:06:47;;;;;;;1.97;1.30;;;26.70;79.30;;;;;;4975252;28;20948;-87
2022/08/05 12:09:20;;;;;;;2.37;1.30;;;26.70;79.30;;;;;;4975713;28;20503;-87
2022/08/05 12:11:49;;;;;;;1.90;1.50;;;26.70;79.10;;;;;;4976094;28;20441;-86
2022/08/05 12:14:16;;;;;;;1.90;1.67;;;26.70;79.10;;;;;;4975647;28;20995;-86
2022/08/05 12:16:46;;;;;;;1.90;1.20;;;26.70;79.10;;;;;;4975472;28;21000;-85
2022/08/05 12:19:13;;;;;;;5.17;1.70;;;26.70;79.00;;;;;;4976874;28;20449;-86
2022/08/05 12:21:46;;;;;;;2.40;1.40;;;26.70;79.00;;;;;;4975850;28;20525;-86
2022/08/05 12:24:16;;;;;;;3.40;2.10;;;26.70;79.00;;;;;;4975580;28;20445;-86
2022/08/05 12:26:44;;;;;;;1.50;1.30;;;26.70;79.00;;;;;;4975213;28;20453;-86
2022/08/05 12:29:14;;;;;;;1.93;1.67;;;26.70;79.00;;;;;;4975058;28;20531;-86
2022/08/05 12:31:46;;;;;;;2.37;1.97;;;26.70;78.90;;;;;;4975312;28;20480;-86
2022/08/05 12:34:13;;;;;;;3.83;1.60;;;26.70;78.80;;;;;;4975443;28;20799;-86
2022/08/05 12:36:41;;;;;;;1.47;1.23;;;26.70;78.80;;;;;;4975109;28;20916;-86
2022/08/05 12:39:08;;;;;;;2.70;1.70;;;26.70;78.70;;;;;;4975204;28;20540;-87
2022/08/05 12:41:37;;;;;;;1.70;1.60;;;26.70;78.70;;;;;;4974959;28;20453;-86
2022/08/05 12:44:06;;;;;;;1.80;1.30;;;26.70;78.70;;;;;;4974943;28;20548;-86
2022/08/05 12:46:38;;;;;;;1.60;1.50;;;26.70;78.60;;;;;;4975106;28;20557;-86
2022/08/05 12:49:08;;;;;;;3.57;1.47;;;26.70;78.60;;;;;;4974810;28;20496;-85
2022/08/05 12:51:45;;;;;;;2.10;2.00;;;26.70;78.60;;;;;;4974970;28;20952;-86
2022/08/05 12:54:19;;;;;;;1.97;1.53;;;26.70;78.50;;;;;;4975326;28;20441;-87
2022/08/05 12:56:49;;;;;;;1.80;1.50;;;26.70;78.50;;;;;;4975070;28;20448;-84
2022/08/05 12:59:18;;;;;;;2.00;1.50;;;26.70;78.40;;;;;;4974949;28;20963;-86
2022/08/05 13:01:55;;;;;;;2.03;1.83;;;26.70;78.40;;;;;;4975406;28;20532;-87